createdAt,value
2022-08-28T00:00:42.500Z,3.80
2022-08-28T00:03:10.638Z,4.60
2022-08-28T00:05:39.636Z,5.40
2022-08-28T00:08:08.200Z,5.45
2022-08-28T00:10:35.834Z,5.20
2022-08-28T00:13:03.244Z,4.97
2022-08-28T00:15:32.258Z,5.97
2022-08-28T00:17:59.925Z,5.15
2022-08-28T00:20:27.588Z,4.30
2022-08-28T00:22:55.634Z,4.25
2022-08-28T00:25:24.318Z,6.72
2022-08-28T00:27:53.184Z,5.35
2022-08-28T00:30:21.443Z,6.05
2022-08-28T00:32:49.217Z,4.82
2022-08-28T00:35:17.696Z,7.93
2022-08-28T00:37:46.415Z,4.78
2022-08-28T00:40:16.043Z,3.92
2022-08-28T00:42:43.726Z,6.97
2022-08-28T00:45:11.064Z,4.82
2022-08-28T00:47:40.052Z,5.35
2022-08-28T00:50:08.944Z,6.03
2022-08-28T00:52:36.332Z,4.95
2022-08-28T00:55:13.570Z,4.45
2022-08-28T00:57:48.461Z,4.25
2022-08-28T01:00:31.941Z,4.50
2022-08-28T01:02:59.425Z,5.13
2022-08-28T01:05:27.223Z,3.47
2022-08-28T01:07:55.337Z,4.28
2022-08-28T01:10:23.291Z,3.83
2022-08-28T01:12:50.830Z,5.32
2022-08-28T01:15:20.961Z,4.45
2022-08-28T01:17:49.254Z,5.10
2022-08-28T01:20:18.654Z,4.45
2022-08-28T01:23:09.963Z,6.55
2022-08-28T01:25:37.495Z,5.97
2022-08-28T01:28:07.198Z,9.18
2022-08-28T01:30:34.614Z,9.27
2022-08-28T01:33:02.011Z,4.68
2022-08-28T01:35:33.639Z,5.30
2022-08-28T01:38:01.405Z,6.28
2022-08-28T01:40:37.055Z,5.13
2022-08-28T01:43:12.547Z,5.15
2022-08-28T01:45:44.714Z,5.18
2022-08-28T01:48:12.900Z,5.13
2022-08-28T01:50:40.557Z,5.60
2022-08-28T01:53:08.048Z,4.93
2022-08-28T01:55:40.105Z,5.53
2022-08-28T01:58:09.503Z,4.57
2022-08-28T02:00:37.109Z,5.10
2022-08-28T02:03:04.471Z,3.95
2022-08-28T02:05:32.639Z,4.80
2022-08-28T02:08:00.521Z,4.22
2022-08-28T02:10:28.503Z,4.05
2022-08-28T02:12:56.175Z,5.75
2022-08-28T02:15:27.163Z,5.30
2022-08-28T02:17:54.608Z,6.38
2022-08-28T02:20:22.444Z,5.38
2022-08-28T02:22:49.792Z,5.50
2022-08-28T02:25:17.247Z,4.13
2022-08-28T02:27:45.359Z,4.47
2022-08-28T02:30:13.320Z,4.20
2022-08-28T02:32:40.706Z,5.45
2022-08-28T02:35:10.985Z,4.22
2022-08-28T02:37:40.102Z,5.55
2022-08-28T02:40:08.340Z,4.55
2022-08-28T02:42:35.712Z,6.47
2022-08-28T02:45:03.440Z,6.72
2022-08-28T02:47:31.862Z,4.55
2022-08-28T02:49:59.245Z,3.80
2022-08-28T02:52:27.001Z,5.07
2022-08-28T02:54:54.317Z,7.38
2022-08-28T02:57:21.646Z,4.45
2022-08-28T02:59:49.009Z,4.13
2022-08-28T03:02:16.915Z,7.22
2022-08-28T03:04:44.634Z,4.15
2022-08-28T03:07:13.697Z,6.40
2022-08-28T03:09:43.573Z,4.07
2022-08-28T03:12:13.169Z,5.55
2022-08-28T03:14:40.575Z,5.45
2022-08-28T03:17:07.920Z,6.72
2022-08-28T03:19:35.385Z,6.35
2022-08-28T03:22:02.753Z,6.25
2022-08-28T03:24:30.074Z,5.78
2022-08-28T03:26:57.424Z,6.10
2022-08-28T03:29:24.727Z,6.65
2022-08-28T03:31:52.782Z,6.50
2022-08-28T03:34:20.533Z,5.55
2022-08-28T03:36:47.871Z,5.72
2022-08-28T03:39:15.194Z,6.82
2022-08-28T03:41:42.544Z,5.40
2022-08-28T03:44:09.923Z,5.32
2022-08-28T03:46:37.343Z,5.95
2022-08-28T03:49:04.837Z,9.75
2022-08-28T03:51:32.943Z,7.00
2022-08-28T03:54:00.586Z,6.05
2022-08-28T03:56:28.727Z,6.45
2022-08-28T03:58:58.493Z,5.55
2022-08-28T04:01:26.052Z,6.85
2022-08-28T04:03:53.467Z,5.90
2022-08-28T04:06:20.829Z,10.38
2022-08-28T04:08:48.337Z,6.15
2022-08-28T04:11:15.875Z,7.78
2022-08-28T04:13:43.314Z,7.22
2022-08-28T04:16:13.054Z,6.25
2022-08-28T04:18:41.982Z,5.70
2022-08-28T04:21:11.922Z,7.88
2022-08-28T04:23:39.963Z,10.48
2022-08-28T04:26:07.778Z,7.18
2022-08-28T04:28:35.339Z,6.35
2022-08-28T04:31:02.890Z,7.47
2022-08-28T04:33:30.359Z,7.22
2022-08-28T04:35:57.742Z,7.60
2022-08-28T04:38:25.063Z,7.45
2022-08-28T04:40:52.523Z,7.22
2022-08-28T04:43:19.835Z,7.05
2022-08-28T04:45:47.282Z,6.63
2022-08-28T04:48:14.768Z,8.02
2022-08-28T04:50:47.245Z,8.57
2022-08-28T04:53:15.223Z,7.82
2022-08-28T04:55:54.465Z,7.20
2022-08-28T04:58:23.754Z,8.15
2022-08-28T05:00:52.187Z,6.68
2022-08-28T05:03:19.639Z,7.57
2022-08-28T05:05:49.102Z,6.93
2022-08-28T05:08:18.029Z,6.72
2022-08-28T05:10:47.011Z,6.18
2022-08-28T05:13:18.280Z,6.43
2022-08-28T05:15:47.519Z,5.57
2022-08-28T05:18:15.577Z,5.63
2022-08-28T05:20:44.655Z,6.30
2022-08-28T05:23:12.353Z,7.70
2022-08-28T05:25:42.766Z,7.03
2022-08-28T05:28:12.034Z,6.97
2022-08-28T05:30:40.257Z,6.45
2022-08-28T05:33:08.230Z,6.50
2022-08-28T05:35:40.249Z,7.65
2022-08-28T05:38:07.763Z,7.90
2022-08-28T05:40:40.039Z,8.15
2022-08-28T05:43:07.412Z,7.28
2022-08-28T05:45:34.756Z,8.35
2022-08-28T05:48:02.260Z,7.80
2022-08-28T05:50:31.314Z,6.38
2022-08-28T05:52:59.255Z,6.10
2022-08-28T05:55:26.636Z,6.65
2022-08-28T05:57:53.976Z,7.47
2022-08-28T06:00:21.578Z,7.32
2022-08-28T06:02:48.906Z,6.85
2022-08-28T06:05:17.930Z,6.30
2022-08-28T06:07:45.338Z,6.53
2022-08-28T06:10:12.693Z,5.75
2022-08-28T06:12:40.331Z,8.65
2022-08-28T06:15:08.245Z,9.82
2022-08-28T06:17:35.556Z,10.02
2022-08-28T06:20:04.371Z,7.78
2022-08-28T06:22:31.678Z,11.73
2022-08-28T06:24:59.077Z,10.48
2022-08-28T06:27:26.439Z,13.70
2022-08-28T06:29:53.781Z,13.75
2022-08-28T06:32:21.146Z,15.63
2022-08-28T06:34:48.579Z,14.68
2022-08-28T06:37:15.924Z,18.92
2022-08-28T06:39:43.241Z,17.73
2022-08-28T06:42:10.593Z,18.17
2022-08-28T06:44:39.228Z,16.52
2022-08-28T06:47:06.647Z,20.08
2022-08-28T06:49:34.226Z,22.45
2022-08-28T06:52:02.303Z,24.17
2022-08-28T06:54:31.024Z,21.38
2022-08-28T06:56:58.423Z,23.25
2022-08-28T06:59:26.807Z,21.27
2022-08-28T07:01:54.429Z,23.80
2022-08-28T07:04:21.944Z,21.65
2022-08-28T07:06:54.114Z,32.03
2022-08-28T07:09:22.543Z,29.42
2022-08-28T07:11:50.040Z,28.13
2022-08-28T07:14:17.380Z,34.38
2022-08-28T07:16:44.950Z,28.60
2022-08-28T07:19:12.520Z,32.38
2022-08-28T07:21:42.154Z,34.40
2022-08-28T07:24:10.628Z,32.88
2022-08-28T07:26:40.826Z,31.73
2022-08-28T07:29:10.016Z,31.88
2022-08-28T07:31:46.887Z,27.55
2022-08-28T07:34:15.937Z,31.88
2022-08-28T07:36:43.415Z,33.88
2022-08-28T07:39:11.561Z,31.17
2022-08-28T07:41:40.303Z,31.10
2022-08-28T07:44:26.466Z,32.85
2022-08-28T07:46:58.005Z,32.50
2022-08-28T07:49:25.599Z,34.58
2022-08-28T07:51:53.877Z,30.75
2022-08-28T07:54:22.716Z,30.67
2022-08-28T07:56:50.281Z,31.30
2022-08-28T07:59:19.217Z,30.05
2022-08-28T08:01:48.244Z,33.58
2022-08-28T08:04:16.286Z,27.63
2022-08-28T08:06:43.879Z,24.92
2022-08-28T08:09:13.220Z,25.13
2022-08-28T08:11:40.617Z,22.13
2022-08-28T08:14:08.436Z,24.17
2022-08-28T08:16:38.713Z,25.90
2022-08-28T08:19:06.474Z,28.52
2022-08-28T08:21:33.827Z,22.35
2022-08-28T08:24:01.206Z,23.90
2022-08-28T08:26:28.612Z,22.35
2022-08-28T08:28:56.186Z,25.55
2022-08-28T08:31:26.646Z,21.92
2022-08-28T08:33:56.140Z,24.25
2022-08-28T08:36:25.015Z,24.00
2022-08-28T08:38:59.989Z,24.05
2022-08-28T08:41:51.181Z,21.55
2022-08-28T08:44:23.705Z,25.15
2022-08-28T08:47:16.254Z,26.08
2022-08-28T08:50:07.143Z,24.15
2022-08-28T08:52:40.364Z,27.13
2022-08-28T08:55:23.885Z,25.67
2022-08-28T08:58:04.544Z,25.75
2022-08-28T09:00:33.415Z,24.65
2022-08-28T09:03:15.349Z,25.20
2022-08-28T09:06:12.529Z,23.70
2022-08-28T09:08:44.433Z,24.95
2022-08-28T09:12:03.599Z,25.70
2022-08-28T09:14:38.493Z,27.73
2022-08-28T09:17:06.143Z,27.65
2022-08-28T09:19:33.684Z,28.27
2022-08-28T09:22:01.422Z,25.27
2022-08-28T09:24:33.519Z,26.05
2022-08-28T09:27:24.919Z,27.02
2022-08-28T09:30:02.530Z,31.65
2022-08-28T09:32:43.762Z,27.88
2022-08-28T09:35:25.238Z,27.63
2022-08-28T09:37:52.702Z,28.73
2022-08-28T09:40:22.459Z,31.40
2022-08-28T09:43:23.566Z,29.00
2022-08-28T09:46:09.936Z,27.65
2022-08-28T09:48:43.346Z,32.53
2022-08-28T09:51:22.927Z,31.08
2022-08-28T09:53:56.446Z,30.67
2022-08-28T09:56:33.494Z,35.30
2022-08-28T09:59:14.213Z,34.45
2022-08-28T10:01:45.110Z,34.65
2022-08-28T10:04:34.572Z,31.10
2022-08-28T10:07:15.250Z,34.33
2022-08-28T10:09:51.790Z,37.72
2022-08-28T10:12:50.367Z,39.70
2022-08-28T10:16:13.863Z,37.25
2022-08-28T10:18:53.088Z,43.85
2022-08-28T10:21:29.312Z,34.50
2022-08-28T10:24:09.475Z,32.97
2022-08-28T10:26:42.902Z,34.47
2022-08-28T10:29:31.331Z,36.13
2022-08-28T10:32:21.907Z,38.75
2022-08-28T10:35:08.140Z,37.80
2022-08-28T10:37:57.166Z,36.40
2022-08-28T10:40:52.090Z,44.33
2022-08-28T10:43:45.783Z,37.13
2022-08-28T10:46:27.881Z,42.55
2022-08-28T10:49:00.446Z,41.22
2022-08-28T10:51:44.600Z,40.30
2022-08-28T10:54:23.483Z,44.28
2022-08-28T10:57:00.095Z,41.20
2022-08-28T10:59:27.744Z,43.65
2022-08-28T11:01:55.136Z,39.30
2022-08-28T11:04:25.649Z,38.80
2022-08-28T11:06:58.518Z,41.95
2022-08-28T11:09:35.336Z,45.08
2022-08-28T11:12:10.089Z,44.83
2022-08-28T11:14:47.586Z,46.95
2022-08-28T11:17:22.053Z,36.38
2022-08-28T11:20:10.614Z,37.30
2022-08-28T11:22:39.485Z,47.15
2022-08-28T11:25:26.666Z,39.10
2022-08-28T11:28:25.540Z,47.38
2022-08-28T11:30:59.193Z,49.53
2022-08-28T11:33:47.695Z,46.08
2022-08-28T11:36:25.395Z,44.83
2022-08-28T11:38:53.226Z,44.45
2022-08-28T11:41:24.429Z,41.47
2022-08-28T11:44:13.918Z,44.88
2022-08-28T11:46:49.148Z,37.63
2022-08-28T11:49:34.768Z,42.83
2022-08-28T11:52:31.439Z,43.15
2022-08-28T11:55:02.023Z,42.08
2022-08-28T11:57:50.632Z,35.00
2022-08-28T12:00:39.967Z,45.78
2022-08-28T12:03:07.338Z,37.60
2022-08-28T12:05:36.101Z,45.25
2022-08-28T12:08:03.969Z,37.25
2022-08-28T12:10:32.406Z,38.03
2022-08-28T12:13:04.017Z,35.83
2022-08-28T12:15:31.376Z,41.35
2022-08-28T12:18:00.014Z,41.70
2022-08-28T12:20:51.018Z,41.80
2022-08-28T12:23:37.836Z,33.55
2022-08-28T12:26:26.530Z,35.53
2022-08-28T12:28:56.955Z,39.15
2022-08-28T12:31:55.039Z,31.67
2022-08-28T12:34:28.846Z,33.33
2022-08-28T12:37:00.211Z,35.97
2022-08-28T12:39:27.747Z,31.48
2022-08-28T12:41:55.131Z,29.70
2022-08-28T12:44:24.253Z,33.40
2022-08-28T12:46:51.675Z,36.38
2022-08-28T12:49:37.783Z,32.42
2022-08-28T12:52:18.260Z,31.90
2022-08-28T12:54:46.213Z,32.17
2022-08-28T12:57:18.013Z,31.33
2022-08-28T12:59:52.942Z,25.20
2022-08-28T13:02:28.375Z,32.28
2022-08-28T13:05:00.061Z,27.25
2022-08-28T13:07:40.555Z,29.67
2022-08-28T13:10:29.675Z,26.48
2022-08-28T13:13:27.878Z,27.73
2022-08-28T13:15:58.491Z,27.55
2022-08-28T13:18:49.743Z,28.58
2022-08-28T13:21:30.843Z,28.40
2022-08-28T13:24:26.108Z,30.08
2022-08-28T13:27:06.858Z,28.77
2022-08-28T13:29:34.381Z,25.50
2022-08-28T13:32:08.524Z,27.45
2022-08-28T13:34:37.333Z,28.00
2022-08-28T13:37:08.816Z,27.90
2022-08-28T13:39:47.723Z,29.75
2022-08-28T13:42:15.925Z,29.13
2022-08-28T13:44:49.102Z,36.05
2022-08-28T13:47:16.760Z,29.73
2022-08-28T13:49:44.148Z,27.88
2022-08-28T13:52:11.942Z,28.80
2022-08-28T13:54:43.817Z,30.77
2022-08-28T13:57:16.119Z,26.25
2022-08-28T13:59:43.637Z,32.55
2022-08-28T14:02:31.117Z,31.55
2022-08-28T14:04:58.628Z,27.60
2022-08-28T14:07:25.969Z,31.30
2022-08-28T14:09:56.411Z,28.63
2022-08-28T14:12:31.410Z,26.38
2022-08-28T14:15:01.788Z,26.10
2022-08-28T14:17:29.268Z,25.60
2022-08-28T14:19:56.798Z,27.23
2022-08-28T14:22:24.177Z,26.27
2022-08-28T14:24:52.196Z,28.30
2022-08-28T14:27:19.611Z,24.00
2022-08-28T14:29:47.042Z,25.75
2022-08-28T14:32:14.477Z,26.38
2022-08-28T14:34:41.991Z,26.77
2022-08-28T14:37:09.363Z,26.27
2022-08-28T14:39:36.746Z,26.92
2022-08-28T14:42:06.457Z,30.88
2022-08-28T14:47:07.713Z,28.63
2022-08-28T14:49:35.127Z,24.20
2022-08-28T14:52:02.597Z,24.80
2022-08-28T14:54:29.957Z,25.02
2022-08-28T14:56:57.451Z,25.58
2022-08-28T14:59:26.695Z,21.73
2022-08-28T15:01:55.576Z,29.10
2022-08-28T15:04:23.640Z,25.75
2022-08-28T15:06:54.908Z,32.60
2022-08-28T15:09:22.260Z,28.50
2022-08-28T15:11:49.643Z,31.33
2022-08-28T15:14:17.074Z,31.52
2022-08-28T15:16:45.671Z,34.83
2022-08-28T15:19:15.893Z,29.38
2022-08-28T15:21:45.664Z,24.23
2022-08-28T15:24:13.870Z,21.95
2022-08-28T15:26:41.275Z,22.23
2022-08-28T15:29:08.982Z,20.98
2022-08-28T15:31:38.674Z,23.13
2022-08-28T15:34:09.873Z,25.92
2022-08-28T15:36:42.031Z,26.50
2022-08-28T15:39:28.557Z,26.10
2022-08-28T15:41:56.383Z,25.23
2022-08-28T15:44:24.151Z,22.95
2022-08-28T15:46:56.412Z,26.33
2022-08-28T15:49:24.439Z,30.35
2022-08-28T15:51:52.589Z,24.63
2022-08-28T15:54:22.116Z,24.85
2022-08-28T15:56:52.729Z,26.90
2022-08-28T15:59:21.555Z,24.60
2022-08-28T16:01:51.269Z,25.08
2022-08-28T16:04:18.814Z,27.02
2022-08-28T16:06:46.489Z,24.80
2022-08-28T16:09:13.995Z,25.20
2022-08-28T16:11:43.817Z,23.65
2022-08-28T16:14:11.999Z,25.77
2022-08-28T16:16:39.615Z,24.98
2022-08-28T16:19:14.127Z,27.05
2022-08-28T16:21:42.284Z,25.75
2022-08-28T16:24:09.979Z,24.20
2022-08-28T16:26:37.978Z,26.30
2022-08-28T16:29:06.000Z,27.73
2022-08-28T16:31:34.560Z,26.35
2022-08-28T16:34:03.023Z,26.90
2022-08-28T16:36:30.877Z,25.90
2022-08-28T16:39:03.661Z,23.65
2022-08-28T16:41:31.939Z,23.42
2022-08-28T16:43:59.453Z,25.20
2022-08-28T16:46:27.912Z,30.58
2022-08-28T16:48:55.462Z,23.95
2022-08-28T16:51:26.782Z,23.02
2022-08-28T16:53:54.848Z,25.90
2022-08-28T16:56:23.765Z,24.58
2022-08-28T16:58:53.268Z,22.17
2022-08-28T17:01:23.972Z,21.02
2022-08-28T17:03:52.942Z,21.55
2022-08-28T17:06:26.491Z,20.63
2022-08-28T17:08:56.954Z,20.90
2022-08-28T17:11:26.029Z,19.65
2022-08-28T17:13:53.843Z,19.00
2022-08-28T17:16:21.591Z,20.80
2022-08-28T17:18:52.564Z,17.95
2022-08-28T17:21:40.157Z,21.95
2022-08-28T17:24:08.729Z,20.25
2022-08-28T17:26:36.087Z,18.75
2022-08-28T17:29:03.995Z,17.45
2022-08-28T17:31:31.521Z,23.70
2022-08-28T17:33:58.966Z,19.10
2022-08-28T17:36:33.421Z,17.42
2022-08-28T17:39:03.065Z,23.55
2022-08-28T17:41:30.475Z,18.38
2022-08-28T17:43:58.264Z,18.48
2022-08-28T17:46:26.576Z,18.33
2022-08-28T17:48:55.856Z,19.05
2022-08-28T17:51:40.438Z,18.48
2022-08-28T17:54:18.239Z,19.00
2022-08-28T17:56:46.306Z,21.33
2022-08-28T17:59:13.987Z,20.00
2022-08-28T18:01:42.312Z,19.45
2022-08-28T18:04:10.384Z,18.33
2022-08-28T18:06:37.907Z,21.60
2022-08-28T18:09:05.945Z,22.38
2022-08-28T18:11:33.448Z,20.75
2022-08-28T18:14:01.089Z,24.65
2022-08-28T18:16:31.329Z,26.92
2022-08-28T18:19:00.113Z,26.15
2022-08-28T18:21:27.655Z,24.60
2022-08-28T18:23:55.057Z,26.30
2022-08-28T18:26:22.391Z,25.52
2022-08-28T18:28:49.911Z,27.60
2022-08-28T18:31:17.696Z,26.27
2022-08-28T18:33:45.128Z,22.23
2022-08-28T18:36:13.514Z,23.65
2022-08-28T18:38:41.265Z,26.55
2022-08-28T18:41:08.861Z,24.13
2022-08-28T18:43:36.602Z,24.83
2022-08-28T18:46:04.510Z,22.45
2022-08-28T18:48:32.030Z,24.17
2022-08-28T18:50:59.581Z,29.70
2022-08-28T18:53:27.958Z,22.75
2022-08-28T18:55:56.382Z,22.67
2022-08-28T18:58:27.880Z,27.70
2022-08-28T19:00:55.469Z,22.50
2022-08-28T19:03:22.837Z,22.25
2022-08-28T19:05:51.079Z,23.27
2022-08-28T19:08:18.628Z,25.27
2022-08-28T19:10:46.639Z,22.55
2022-08-28T19:13:14.051Z,23.77
2022-08-28T19:15:41.604Z,27.30
2022-08-28T19:18:09.051Z,28.08
2022-08-28T19:20:36.458Z,24.13
2022-08-28T19:23:03.817Z,25.17
2022-08-28T19:25:31.261Z,26.63
2022-08-28T19:27:59.706Z,23.80
2022-08-28T19:30:28.689Z,23.95
2022-08-28T19:32:56.115Z,26.77
2022-08-28T19:35:24.525Z,23.88
2022-08-28T19:37:52.839Z,27.77
2022-08-28T19:40:20.743Z,26.75
2022-08-28T19:42:49.846Z,24.90
2022-08-28T19:45:17.872Z,28.33
2022-08-28T19:47:45.559Z,24.15
2022-08-28T19:50:13.930Z,25.20
2022-08-28T19:52:41.453Z,23.15
2022-08-28T19:55:08.990Z,24.30
2022-08-28T19:57:36.636Z,24.55
2022-08-28T20:00:04.824Z,22.63
2022-08-28T20:02:32.195Z,25.35
2022-08-28T20:04:59.619Z,23.23
2022-08-28T20:07:26.983Z,27.88
2022-08-28T20:09:54.318Z,28.92
2022-08-28T20:12:21.704Z,22.48
2022-08-28T20:14:49.340Z,31.40
2022-08-28T20:17:18.634Z,23.75
2022-08-28T20:19:47.631Z,25.67
2022-08-28T20:22:15.279Z,24.67
2022-08-28T20:24:42.818Z,25.67
2022-08-28T20:27:10.194Z,23.17
2022-08-28T20:29:37.554Z,22.08
2022-08-28T20:32:05.017Z,23.83
2022-08-28T20:34:32.397Z,24.08
2022-08-28T20:36:59.747Z,24.58
2022-08-28T20:39:28.189Z,26.58
2022-08-28T20:41:55.523Z,23.27
2022-08-28T20:44:22.905Z,21.42
2022-08-28T20:46:51.537Z,25.25
2022-08-28T20:49:24.386Z,23.73
2022-08-28T20:51:58.835Z,24.92
2022-08-28T20:57:03.478Z,20.80
2022-08-28T20:59:35.434Z,25.90
2022-08-28T21:02:11.137Z,23.42
2022-08-28T21:04:39.017Z,21.45
2022-08-28T21:07:06.511Z,25.70
2022-08-28T21:10:01.424Z,23.38
2022-08-28T21:12:21.524Z,26.15
2022-08-28T21:14:52.315Z,25.05
2022-08-28T21:17:28.846Z,25.67
2022-08-28T21:19:57.097Z,23.73
2022-08-28T21:22:24.441Z,25.83
2022-08-28T21:24:51.803Z,23.30
2022-08-28T21:27:19.153Z,26.85
2022-08-28T21:29:46.505Z,25.02
2022-08-28T21:32:13.840Z,24.10
2022-08-28T21:34:41.218Z,26.63
2022-08-28T21:37:08.572Z,25.15
2022-08-28T21:39:35.931Z,27.35
2022-08-28T21:42:03.388Z,22.05
2022-08-28T21:44:30.735Z,30.88
2022-08-28T21:46:59.523Z,23.50
2022-08-28T21:49:26.883Z,22.35
2022-08-28T21:51:54.769Z,22.75
2022-08-28T21:54:23.053Z,25.08
2022-08-28T21:56:50.608Z,26.40
2022-08-28T21:59:30.270Z,31.90
2022-08-28T22:02:05.348Z,25.73
2022-08-28T22:04:32.854Z,27.73
2022-08-28T22:07:00.192Z,24.85
2022-08-28T22:09:27.665Z,28.20
2022-08-28T22:11:54.985Z,26.17
2022-08-28T22:14:25.151Z,27.58
2022-08-28T22:16:52.601Z,27.23
2022-08-28T22:19:19.973Z,24.65
2022-08-28T22:22:05.724Z,28.90
2022-08-28T22:24:33.338Z,27.27
2022-08-28T22:27:00.672Z,23.95
2022-08-28T22:29:30.012Z,28.73
2022-08-28T22:31:57.390Z,28.77
2022-08-28T22:34:24.775Z,26.85
2022-08-28T22:36:52.102Z,27.05
2022-08-28T22:39:19.441Z,29.67
2022-08-28T22:41:46.779Z,30.45
2022-08-28T22:44:14.136Z,25.35
2022-08-28T22:46:42.050Z,27.20
2022-08-28T22:49:09.382Z,27.23
2022-08-28T22:51:36.698Z,28.05
2022-08-28T22:54:04.369Z,29.70
2022-08-28T22:56:31.691Z,29.60
2022-08-28T22:58:59.381Z,29.40
2022-08-28T23:01:26.913Z,23.77
2022-08-28T23:03:54.378Z,24.88
2022-08-28T23:06:21.765Z,25.40
2022-08-28T23:08:49.278Z,25.13
2022-08-28T23:11:16.983Z,23.40
2022-08-28T23:13:44.356Z,24.73
2022-08-28T23:16:11.777Z,26.05
2022-08-28T23:19:04.300Z,25.95
2022-08-28T23:21:28.409Z,26.17
2022-08-28T23:23:56.167Z,25.63
2022-08-28T23:26:24.076Z,30.50
2022-08-28T23:28:51.742Z,22.80
2022-08-28T23:31:19.281Z,22.85
2022-08-28T23:33:46.837Z,25.23
2022-08-28T23:36:15.252Z,23.73
2022-08-28T23:38:44.792Z,24.27
2022-08-28T23:41:12.504Z,23.50
2022-08-28T23:43:40.862Z,24.73
2022-08-28T23:46:09.597Z,23.25
2022-08-28T23:48:41.071Z,24.25
2022-08-28T23:51:09.807Z,23.38
2022-08-28T23:53:39.407Z,22.58
2022-08-28T23:56:07.074Z,22.38
2022-08-28T23:58:35.406Z,23.45
